Time;durP1;ratioP1;P1;durP2;ratioP2;P2;SDS_P1;SDS_P2;PMS_P1;PMS_P2;Temp;Humidity;BMP_temperature;BMP_pressure;BME280_temperature;BME280_humidity;BME280_pressure;Samples;Min_cycle;Max_cycle;Signal;HPM_P1;HPM_P2
2023/06/09 00:02:28;;;;;;;1.95;1.85;;;13.00;57.90;;;;;;5053115;28;20467;-71
2023/06/09 00:04:59;;;;;;;2.15;1.60;;;12.90;63.10;;;;;;5040941;28;20484;-71
2023/06/09 00:07:27;;;;;;;1.42;1.38;;;12.70;73.90;;;;;;5040717;28;20429;-72
2023/06/09 00:09:55;;;;;;;2.22;2.03;;;12.70;89.60;;;;;;5039616;28;20520;-71
2023/06/09 00:12:22;;;;;;;2.60;2.00;;;12.70;99.90;;;;;;5040240;28;20430;-71
2023/06/09 00:14:58;;;;;;;1.83;1.73;;;12.70;99.90;;;;;;5041657;28;20456;-70
2023/06/09 00:17:25;;;;;;;2.08;1.98;;;12.80;99.90;;;;;;5053111;28;20939;-71
2023/06/09 00:20:21;;;;;;;2.10;1.88;;;12.80;99.90;;;;;;5042624;28;20455;-71
2023/06/09 00:22:48;;;;;;;2.27;2.17;;;12.90;99.90;;;;;;5061761;28;20520;-71
2023/06/09 00:25:16;;;;;;;2.60;2.37;;;13.00;99.90;;;;;;5036641;28;20444;-71
2023/06/09 00:27:45;;;;;;;2.30;2.20;;;13.10;99.90;;;;;;5037628;28;20429;-71
2023/06/09 00:30:19;;;;;;;2.57;2.37;;;13.10;99.90;;;;;;5038464;28;20435;-71
2023/06/09 00:33:03;;;;;;;1.92;1.83;;;13.20;99.90;;;;;;5036657;28;20429;-71
2023/06/09 00:35:30;;;;;;;1.70;1.60;;;13.30;99.90;;;;;;5039835;28;20465;-71
2023/06/09 00:37:57;;;;;;;2.10;1.90;;;13.40;99.90;;;;;;5040212;28;20487;-71
2023/06/09 00:40:24;;;;;;;1.70;1.60;;;13.40;99.90;;;;;;5042358;28;20449;-71
2023/06/09 00:42:51;;;;;;;1.48;1.40;;;13.50;99.90;;;;;;5064488;28;20462;-71
2023/06/09 00:45:22;;;;;;;1.98;1.77;;;13.50;99.90;;;;;;5030519;28;20436;-71
2023/06/09 00:47:50;;;;;;;2.35;2.03;;;13.50;99.90;;;;;;5041745;28;20441;-72
2023/06/09 00:50:19;;;;;;;2.60;1.80;;;13.50;99.90;;;;;;5042092;28;20433;-72
2023/06/09 00:52:48;;;;;;;2.35;2.15;;;13.50;99.90;;;;;;5041077;28;20532;-71
2023/06/09 00:55:17;;;;;;;2.13;2.03;;;13.50;99.90;;;;;;5042321;28;20433;-71
2023/06/09 00:57:46;;;;;;;1.40;1.40;;;13.50;99.90;;;;;;5039160;28;20989;-71
2023/06/09 01:00:16;;;;;;;1.98;1.88;;;13.50;99.90;;;;;;5037298;28;20979;-71
2023/06/09 01:02:43;;;;;;;2.00;1.77;;;13.60;99.90;;;;;;5038842;28;20719;-71
2023/06/09 01:05:13;;;;;;;2.40;2.20;;;13.60;99.90;;;;;;5042074;28;20433;-71
2023/06/09 01:07:54;;;;;;;2.53;1.87;;;13.60;99.90;;;;;;5040200;28;20438;-71
2023/06/09 01:10:45;;;;;;;1.45;1.42;;;13.50;99.90;;;;;;5039557;28;20548;-71
2023/06/09 01:13:51;;;;;;;2.10;1.50;;;13.50;99.90;;;;;;5039471;28;20823;-71
2023/06/09 01:16:27;;;;;;;2.35;1.55;;;13.60;99.90;;;;;;5044842;28;20484;-71
2023/06/09 01:18:58;;;;;;;1.73;1.63;;;13.60;99.90;;;;;;5042018;28;20499;-71
2023/06/09 01:21:41;;;;;;;2.10;1.95;;;13.70;99.90;;;;;;5040095;28;20524;-71
2023/06/09 01:24:15;;;;;;;1.58;1.48;;;13.70;99.90;;;;;;5037027;28;20442;-71
2023/06/09 01:26:43;;;;;;;1.55;1.45;;;13.70;99.90;;;;;;5041896;28;21524;-71
2023/06/09 01:29:13;;;;;;;1.70;1.60;;;13.70;99.90;;;;;;5037544;28;20844;-71
2023/06/09 01:31:41;;;;;;;2.03;1.93;;;13.60;99.90;;;;;;5039885;28;20440;-71
2023/06/09 01:34:08;;;;;;;2.43;2.23;;;13.60;99.90;;;;;;5040252;28;20547;-71
2023/06/09 01:36:35;;;;;;;1.77;1.67;;;13.70;99.90;;;;;;5039602;28;20533;-72
2023/06/09 01:39:02;;;;;;;2.50;2.15;;;13.70;99.90;;;;;;5039020;28;20486;-71
2023/06/09 01:41:29;;;;;;;2.53;2.13;;;13.70;99.90;;;;;;5039369;28;20433;-71
2023/06/09 01:43:56;;;;;;;2.30;2.10;;;13.70;99.90;;;;;;5037805;28;20446;-71
2023/06/09 01:46:23;;;;;;;1.85;1.55;;;13.60;99.90;;;;;;5074117;28;20433;-71
2023/06/09 01:48:57;;;;;;;2.05;1.95;;;13.60;99.90;;;;;;5039843;28;20425;-71
2023/06/09 01:51:39;;;;;;;2.00;1.90;;;13.50;99.90;;;;;;5072911;28;20466;-71
2023/06/09 01:54:12;;;;;;;2.03;1.90;;;13.50;99.90;;;;;;5040796;28;20627;-71
2023/06/09 01:56:46;;;;;;;1.50;1.50;;;13.40;99.90;;;;;;5040352;28;20963;-71
2023/06/09 01:59:19;;;;;;;4.10;1.70;;;13.40;99.90;;;;;;5034241;28;20483;-71
2023/06/09 02:01:49;;;;;;;1.52;1.42;;;13.40;99.90;;;;;;5035936;28;20441;-71
2023/06/09 02:04:19;;;;;;;1.90;1.80;;;13.30;99.90;;;;;;5038016;28;20433;-71
2023/06/09 02:06:47;;;;;;;2.22;1.67;;;13.20;99.90;;;;;;5070349;28;20517;-71
2023/06/09 02:09:15;;;;;;;2.20;2.10;;;13.10;99.90;;;;;;5041181;28;20436;-71
2023/06/09 02:11:41;;;;;;;1.73;1.63;;;13.00;99.90;;;;;;5042911;28;20773;-71
2023/06/09 02:14:08;;;;;;;2.30;2.10;;;12.90;99.90;;;;;;5037432;28;20425;-71
2023/06/09 02:16:36;;;;;;;1.97;1.80;;;12.90;99.90;;;;;;5041255;28;20433;-71
2023/06/09 02:19:03;;;;;;;2.70;1.80;;;12.90;99.90;;;;;;5040883;28;20464;-71
2023/06/09 02:21:30;;;;;;;1.63;1.53;;;12.80;99.90;;;;;;5039025;28;20433;-71
2023/06/09 02:23:57;;;;;;;1.85;1.75;;;12.80;99.90;;;;;;5040516;28;20969;-71
2023/06/09 02:26:27;;;;;;;1.95;1.85;;;12.80;99.90;;;;;;5038440;28;20433;-71
2023/06/09 02:28:53;;;;;;;1.92;1.73;;;12.70;99.90;;;;;;5035220;28;20955;-71
2023/06/09 02:31:20;;;;;;;1.50;1.40;;;12.70;99.90;;;;;;5040481;28;20429;-71
2023/06/09 02:33:47;;;;;;;2.22;2.08;;;12.60;99.90;;;;;;5038887;28;20429;-71
2023/06/09 02:36:14;;;;;;;1.92;1.83;;;12.60;99.90;;;;;;5040689;28;20435;-71
2023/06/09 02:38:40;;;;;;;2.37;2.10;;;12.60;99.90;;;;;;5038999;28;20431;-71
2023/06/09 02:41:07;;;;;;;2.08;1.98;;;12.60;99.90;;;;;;5039082;28;20439;-71
2023/06/09 02:43:34;;;;;;;2.22;2.03;;;12.60;99.90;;;;;;5040533;28;20428;-71
2023/06/09 02:46:01;;;;;;;2.00;1.65;;;12.60;99.90;;;;;;5034591;28;20734;-71
2023/06/09 02:48:28;;;;;;;4.38;1.92;;;12.60;99.90;;;;;;5030250;28;20426;-71
2023/06/09 02:50:55;;;;;;;2.20;2.03;;;12.70;99.90;;;;;;5035003;28;20433;-71
2023/06/09 02:53:22;;;;;;;2.42;2.20;;;12.70;99.90;;;;;;5040201;28;20433;-71
2023/06/09 02:55:51;;;;;;;3.30;1.27;;;12.70;99.90;;;;;;5038898;28;20425;-71
2023/06/09 02:58:18;;;;;;;2.20;1.60;;;12.70;99.90;;;;;;5035893;28;20516;-71
2023/06/09 03:00:45;;;;;;;2.90;1.80;;;12.70;99.90;;;;;;5037766;28;20876;-71
2023/06/09 03:03:13;;;;;;;1.80;1.60;;;12.60;99.90;;;;;;5041232;28;20472;-71
2023/06/09 03:05:43;;;;;;;2.13;1.90;;;12.60;99.90;;;;;;5040205;28;20488;-71
2023/06/09 03:08:10;;;;;;;1.75;1.63;;;12.70;99.90;;;;;;5050699;28;20429;-71
2023/06/09 03:10:37;;;;;;;2.60;2.40;;;12.80;99.90;;;;;;5039865;28;21010;-71
2023/06/09 03:13:04;;;;;;;1.63;1.52;;;12.80;99.90;;;;;;5043125;28;20435;-71
2023/06/09 03:15:33;;;;;;;1.85;1.75;;;12.80;99.90;;;;;;5039026;28;20542;-71
2023/06/09 03:18:00;;;;;;;1.42;1.40;;;12.80;99.90;;;;;;5044558;28;20429;-71
2023/06/09 03:20:27;;;;;;;2.25;1.90;;;12.80;99.90;;;;;;5043538;28;20464;-72
2023/06/09 03:22:54;;;;;;;1.65;1.52;;;12.80;99.90;;;;;;5043875;28;20800;-72
2023/06/09 03:25:21;;;;;;;1.65;1.45;;;12.80;99.90;;;;;;5043546;28;20465;-72
2023/06/09 03:27:48;;;;;;;2.03;1.90;;;12.70;99.90;;;;;;5041171;28;20432;-72
2023/06/09 03:30:15;;;;;;;1.70;1.60;;;12.70;99.90;;;;;;5042255;28;20464;-71
2023/06/09 03:32:41;;;;;;;2.05;1.73;;;12.70;99.90;;;;;;5074087;28;20433;-71
2023/06/09 03:35:08;;;;;;;1.77;1.67;;;12.60;99.90;;;;;;5041110;28;20425;-72
2023/06/09 03:37:35;;;;;;;1.90;1.80;;;12.60;99.90;;;;;;5044037;28;20984;-71
2023/06/09 03:40:15;;;;;;;1.45;1.38;;;12.60;99.90;;;;;;5044588;28;20903;-72
2023/06/09 03:42:41;;;;;;;1.95;1.85;;;12.60;99.90;;;;;;5041365;28;20464;-72
2023/06/09 03:45:08;;;;;;;1.50;1.35;;;12.70;99.90;;;;;;5042824;28;20436;-72
2023/06/09 03:47:35;;;;;;;1.88;1.77;;;12.80;99.90;;;;;;5043300;28;20455;-72
2023/06/09 03:50:02;;;;;;;2.22;1.77;;;12.80;99.90;;;;;;5042870;28;20432;-72
2023/06/09 03:52:30;;;;;;;2.10;2.00;;;12.90;99.90;;;;;;5043276;28;20437;-72
2023/06/09 03:54:57;;;;;;;1.83;1.60;;;12.90;99.90;;;;;;5040599;28;20453;-72
2023/06/09 03:57:23;;;;;;;1.70;1.60;;;12.90;99.90;;;;;;5043605;28;20425;-71
2023/06/09 03:59:50;;;;;;;1.87;1.77;;;12.90;99.90;;;;;;5040758;28;20433;-71
2023/06/09 04:02:17;;;;;;;1.70;1.60;;;13.00;99.90;;;;;;5040470;28;20931;-72
2023/06/09 04:04:44;;;;;;;2.75;1.65;;;13.00;99.90;;;;;;5042437;28;21015;-72
2023/06/09 04:07:14;;;;;;;1.30;1.30;;;13.10;99.90;;;;;;5041597;28;20437;-72
2023/06/09 04:09:41;;;;;;;1.80;1.70;;;13.20;99.90;;;;;;5040376;28;20487;-72
2023/06/09 04:12:08;;;;;;;1.45;1.20;;;13.30;99.90;;;;;;5044949;28;20437;-72
2023/06/09 04:14:35;;;;;;;2.08;1.70;;;13.40;99.90;;;;;;5040289;28;20431;-72
2023/06/09 04:17:02;;;;;;;2.40;1.80;;;13.50;99.90;;;;;;5072327;28;20520;-72
2023/06/09 04:19:29;;;;;;;1.58;1.48;;;13.60;99.90;;;;;;5074095;28;20436;-72
2023/06/09 04:21:55;;;;;;;1.88;1.58;;;13.80;99.90;;;;;;5073113;28;20453;-72
2023/06/09 04:24:22;;;;;;;1.95;1.40;;;13.80;99.90;;;;;;5038562;28;20437;-72
2023/06/09 04:26:49;;;;;;;1.60;1.50;;;13.90;99.90;;;;;;5042710;28;20472;-72
2023/06/09 04:29:17;;;;;;;1.75;1.52;;;14.00;99.90;;;;;;5040105;28;20974;-72
2023/06/09 04:31:48;;;;;;;1.85;1.70;;;14.10;99.90;;;;;;5040955;28;20431;-73
2023/06/09 04:34:15;;;;;;;1.60;1.50;;;14.20;99.90;;;;;;5041370;28;20433;-71
2023/06/09 04:36:44;;;;;;;2.00;1.60;;;14.40;99.90;;;;;;5043827;28;20430;-71
2023/06/09 04:39:12;;;;;;;1.38;1.27;;;14.50;99.90;;;;;;5042626;28;20460;-72
2023/06/09 04:41:39;;;;;;;1.35;1.25;;;14.70;99.90;;;;;;5041542;28;20963;-72
2023/06/09 04:44:06;;;;;;;1.95;1.67;;;15.20;99.90;;;;;;5039742;28;20439;-72
2023/06/09 04:46:37;;;;;;;2.30;1.70;;;15.90;99.90;;;;;;5037161;28;20433;-72
2023/06/09 04:49:11;;;;;;;1.88;1.63;;;16.60;99.90;;;;;;5042864;28;20425;-72
2023/06/09 04:51:46;;;;;;;1.73;1.60;;;17.20;85.70;;;;;;5028771;28;20429;-72
2023/06/09 04:54:17;;;;;;;1.40;1.30;;;17.90;1.00;;;;;;5035860;28;20433;-72
2023/06/09 04:56:49;;;;;;;6.20;1.60;;;18.40;1.00;;;;;;5040481;28;20471;-72
2023/06/09 04:59:16;;;;;;;1.80;1.70;;;18.80;99.90;;;;;;5039171;28;20838;-72
2023/06/09 05:01:46;;;;;;;2.00;1.73;;;19.10;99.90;;;;;;5038434;28;20441;-72
2023/06/09 05:04:17;;;;;;;1.60;1.55;;;19.30;1.00;;;;;;5038852;28;20441;-71
2023/06/09 05:06:44;;;;;;;1.73;1.63;;;19.40;1.00;;;;;;5042618;28;20421;-71
2023/06/09 05:09:11;;;;;;;2.35;1.35;;;19.60;1.00;;;;;;5039807;28;20490;-71
2023/06/09 05:11:37;;;;;;;1.48;1.38;;;19.70;99.90;;;;;;5043806;28;20437;-71
2023/06/09 05:14:07;;;;;;;1.30;1.30;;;19.90;99.90;;;;;;5039483;28;20942;-71
2023/06/09 05:16:35;;;;;;;1.40;1.30;;;20.00;99.90;;;;;;5073192;28;20487;-71
2023/06/09 05:19:02;;;;;;;1.90;1.40;;;20.20;99.90;;;;;;5069617;28;20744;-72
2023/06/09 05:21:29;;;;;;;1.50;1.50;;;20.50;99.90;;;;;;5038910;28;20421;-72
2023/06/09 05:23:56;;;;;;;1.77;1.67;;;20.70;99.90;;;;;;5043873;28;20524;-72
2023/06/09 05:26:25;;;;;;;1.60;1.40;;;20.90;99.90;;;;;;5038940;28;20923;-72
2023/06/09 05:28:52;;;;;;;1.45;1.35;;;21.10;99.90;;;;;;5039885;28;20435;-72
2023/06/09 05:31:19;;;;;;;1.63;1.53;;;21.10;99.90;;;;;;5036498;28;20687;-71
2023/06/09 05:33:46;;;;;;;1.60;1.50;;;21.30;99.90;;;;;;5040499;28;20433;-71
2023/06/09 05:36:13;;;;;;;1.17;1.15;;;21.30;99.90;;;;;;5042419;28;20435;-70
2023/06/09 05:38:40;;;;;;;1.60;1.50;;;21.40;99.90;;;;;;5034364;28;20433;-71
2023/06/09 05:41:07;;;;;;;1.40;1.40;;;21.70;99.90;;;;;;5038744;28;20484;-72
2023/06/09 05:43:33;;;;;;;1.20;1.10;;;22.00;99.90;;;;;;5040797;28;20459;-71
2023/06/09 05:46:00;;;;;;;1.30;1.30;;;22.30;99.90;;;;;;5041036;28;20520;-71
2023/06/09 05:48:30;;;;;;;1.40;1.40;;;22.60;99.90;;;;;;5038896;28;20618;-71
2023/06/09 05:51:02;;;;;;;1.45;1.42;;;22.50;99.90;;;;;;5042053;28;20487;-71
2023/06/09 05:53:29;;;;;;;1.27;1.17;;;22.50;99.90;;;;;;5040580;28;20434;-71
2023/06/09 05:55:58;;;;;;;1.35;1.25;;;22.80;99.90;;;;;;5038854;28;20437;-71
2023/06/09 05:58:27;;;;;;;1.05;1.02;;;23.00;99.90;;;;;;5038422;28;20458;-71
2023/06/09 06:00:57;;;;;;;1.92;1.33;;;22.90;99.90;;;;;;5040479;28;20627;-70
2023/06/09 06:03:26;;;;;;;1.10;1.10;;;23.10;99.90;;;;;;5036490;28;20456;-71
2023/06/09 06:05:53;;;;;;;1.40;1.30;;;23.10;99.90;;;;;;5071350;28;20436;-71
2023/06/09 06:08:20;;;;;;;1.60;1.50;;;22.90;99.90;;;;;;5039237;28;20524;-71
2023/06/09 06:10:47;;;;;;;1.55;1.45;;;23.10;99.90;;;;;;5041170;28;20718;-71
2023/06/09 06:13:13;;;;;;;1.45;1.35;;;22.70;99.90;;;;;;5042030;28;20508;-71
2023/06/09 06:15:40;;;;;;;2.38;1.25;;;22.80;99.90;;;;;;5040519;28;20729;-71
2023/06/09 06:18:07;;;;;;;2.38;1.63;;;22.30;99.90;;;;;;5040875;28;20551;-71
2023/06/09 06:20:34;;;;;;;1.40;1.30;;;22.20;99.90;;;;;;5038989;28;20512;-70
2023/06/09 06:23:01;;;;;;;1.40;1.40;;;22.50;99.90;;;;;;5036245;28;20521;-70
2023/06/09 06:25:28;;;;;;;2.08;1.30;;;22.80;99.90;;;;;;5039498;28;20472;-71
2023/06/09 06:27:58;;;;;;;1.45;1.33;;;23.00;99.90;;;;;;5037379;28;20677;-70
2023/06/09 06:30:26;;;;;;;2.92;1.33;;;22.90;99.90;;;;;;5039071;28;20464;-71
2023/06/09 06:32:56;;;;;;;1.35;1.27;;;22.60;99.90;;;;;;5040541;28;20425;-71
2023/06/09 06:35:25;;;;;;;1.50;1.40;;;23.20;99.90;;;;;;5037588;28;20443;-72
2023/06/09 06:37:52;;;;;;;1.40;1.30;;;24.10;99.90;;;;;;5038678;28;20436;-72
2023/06/09 06:40:18;;;;;;;1.40;1.30;;;24.80;99.90;;;;;;5040400;28;20421;-71
2023/06/09 06:42:47;;;;;;;2.25;1.25;;;24.80;99.90;;;;;;5038428;28;20765;-71
2023/06/09 06:45:14;;;;;;;1.17;1.17;;;24.90;99.90;;;;;;5035433;28;20524;-72
2023/06/09 06:47:43;;;;;;;1.48;1.38;;;24.70;99.90;;;;;;5035764;28;20431;-71
2023/06/09 06:50:10;;;;;;;2.27;1.40;;;25.10;99.90;;;;;;5036628;28;20967;-72
2023/06/09 06:52:37;;;;;;;1.35;1.35;;;25.50;99.90;;;;;;5038206;28;20429;-72
2023/06/09 06:55:08;;;;;;;1.50;1.40;;;25.40;99.90;;;;;;5024939;28;20438;-71
2023/06/09 06:57:35;;;;;;;1.38;1.27;;;25.20;99.90;;;;;;5035994;28;20945;-71
2023/06/09 07:00:13;;;;;;;3.30;1.50;;;25.20;99.90;;;;;;5039774;28;20439;-71
2023/06/09 07:02:49;;;;;;;1.33;1.30;;;25.50;99.90;;;;;;5040137;28;20428;-70
2023/06/09 07:05:16;;;;;;;1.65;1.60;;;25.60;99.90;;;;;;5039540;28;20429;-71
2023/06/09 07:07:43;;;;;;;1.20;1.20;;;25.70;99.90;;;;;;5040276;28;20461;-71
2023/06/09 07:10:10;;;;;;;1.33;1.33;;;25.90;99.90;;;;;;5038022;28;20525;-71
2023/06/09 07:12:41;;;;;;;1.50;1.40;;;25.60;99.90;;;;;;5042968;28;20748;-71
2023/06/09 07:15:08;;;;;;;2.00;1.33;;;25.10;99.90;;;;;;5037135;28;20452;-71
2023/06/09 07:17:39;;;;;;;1.65;1.17;;;24.90;99.90;;;;;;5040750;28;20433;-71
2023/06/09 07:20:07;;;;;;;1.58;1.48;;;24.60;99.90;;;;;;5038506;28;20490;-71
2023/06/09 07:22:38;;;;;;;1.65;1.55;;;24.80;99.90;;;;;;5070418;28;21203;-71
2023/06/09 07:25:05;;;;;;;1.90;1.63;;;25.30;99.90;;;;;;5036256;28;20437;-71
2023/06/09 07:27:39;;;;;;;1.70;1.60;;;25.80;99.90;;;;;;5033585;28;20434;-72
2023/06/09 07:30:07;;;;;;;1.25;1.25;;;25.30;99.90;;;;;;5036216;28;20581;-72
2023/06/09 07:32:36;;;;;;;1.50;1.40;;;25.10;99.90;;;;;;5068292;28;20526;-71
2023/06/09 07:35:02;;;;;;;1.67;1.60;;;25.30;99.90;;;;;;5036661;28;20438;-72
2023/06/09 07:37:31;;;;;;;1.30;1.30;;;24.80;99.90;;;;;;5039965;28;20421;-72
2023/06/09 07:39:58;;;;;;;1.23;1.13;;;24.90;99.90;;;;;;5037603;28;20737;-71
2023/06/09 07:42:45;;;;;;;1.40;1.30;;;25.00;99.90;;;;;;5033367;28;20432;-71
2023/06/09 07:45:12;;;;;;;1.20;1.20;;;25.40;99.90;;;;;;5033224;28;20427;-71
2023/06/09 07:47:38;;;;;;;1.50;1.40;;;25.70;99.90;;;;;;5062852;28;20929;-72
2023/06/09 07:50:06;;;;;;;1.30;1.20;;;26.00;99.90;;;;;;5033282;28;20445;-72
2023/06/09 07:52:36;;;;;;;1.60;1.50;;;26.30;99.90;;;;;;5063103;28;20429;-72
2023/06/09 07:55:04;;;;;;;1.10;1.10;;;26.30;99.90;;;;;;5030810;28;20452;-72
2023/06/09 07:57:33;;;;;;;1.88;1.45;;;26.50;99.90;;;;;;5032641;28;20516;-71
2023/06/09 08:00:00;;;;;;;1.55;1.45;;;26.20;99.90;;;;;;5031615;28;20429;-72
2023/06/09 08:02:32;;;;;;;1.75;1.65;;;26.20;99.90;;;;;;5031316;28;20448;-72
2023/06/09 08:04:59;;;;;;;1.60;1.50;;;26.50;99.90;;;;;;5036276;28;20435;-72
2023/06/09 08:07:26;;;;;;;1.10;1.10;;;26.40;99.90;;;;;;5035813;28;20443;-72
2023/06/09 08:09:52;;;;;;;1.23;1.17;;;26.40;99.90;;;;;;5037575;28;20446;-71
2023/06/09 08:12:19;;;;;;;1.63;1.53;;;26.60;99.90;;;;;;5040185;28;20538;-72
2023/06/09 08:14:46;;;;;;;1.50;1.40;;;27.00;99.90;;;;;;5036922;28;20475;-71
2023/06/09 08:17:14;;;;;;;1.20;1.10;;;26.70;99.90;;;;;;5034758;28;20428;-71
2023/06/09 08:19:42;;;;;;;1.10;1.10;;;26.80;99.90;;;;;;5034917;28;20433;-71
2023/06/09 08:22:09;;;;;;;1.50;1.50;;;27.00;99.90;;;;;;5034648;28;20523;-71
2023/06/09 08:24:36;;;;;;;1.30;1.20;;;26.60;99.90;;;;;;5033548;28;20453;-71
2023/06/09 08:27:05;;;;;;;1.40;1.40;;;26.20;99.90;;;;;;5036026;28;20438;-72
2023/06/09 08:29:32;;;;;;;1.83;1.30;;;26.70;99.90;;;;;;5031724;28;20435;-72
2023/06/09 08:32:00;;;;;;;1.53;1.53;;;26.70;99.90;;;;;;5036465;28;20465;-71
2023/06/09 08:34:26;;;;;;;1.30;1.25;;;26.50;99.90;;;;;;5033208;28;20480;-72
2023/06/09 08:36:53;;;;;;;2.97;1.38;;;26.50;99.90;;;;;;5033633;28;21050;-72
2023/06/09 08:39:20;;;;;;;1.45;1.40;;;26.20;99.90;;;;;;5034641;28;20935;-71
2023/06/09 08:41:51;;;;;;;2.58;1.70;;;25.50;99.90;;;;;;5035466;28;20437;-71
2023/06/09 08:44:19;;;;;;;1.48;1.38;;;26.10;99.90;;;;;;5032964;28;20441;-72
2023/06/09 08:46:48;;;;;;;1.67;1.35;;;26.20;99.90;;;;;;5036298;28;20429;-71
2023/06/09 08:49:16;;;;;;;1.42;1.40;;;26.30;99.90;;;;;;5032330;28;21090;-71
2023/06/09 08:51:45;;;;;;;1.08;1.08;;;26.90;99.90;;;;;;5031681;28;20655;-72
2023/06/09 08:54:17;;;;;;;1.57;1.47;;;27.20;99.90;;;;;;5033434;28;20425;-71
2023/06/09 08:56:47;;;;;;;1.27;1.27;;;27.50;99.90;;;;;;5027593;28;20437;-71
2023/06/09 08:59:15;;;;;;;1.30;1.30;;;27.80;99.90;;;;;;5030649;28;20437;-71
2023/06/09 09:01:42;;;;;;;1.40;1.30;;;27.60;99.90;;;;;;5033771;28;20433;-70
2023/06/09 09:04:09;;;;;;;1.35;1.35;;;27.80;99.90;;;;;;5033211;28;20455;-70
2023/06/09 09:06:37;;;;;;;1.43;1.33;;;27.80;99.90;;;;;;5035002;28;20444;-71
2023/06/09 09:09:04;;;;;;;1.23;1.15;;;27.80;99.90;;;;;;5032818;28;20812;-71
2023/06/09 09:11:31;;;;;;;1.35;1.30;;;27.80;99.90;;;;;;5039985;28;20479;-71
2023/06/09 09:14:07;;;;;;;3.90;1.40;;;27.80;99.90;;;;;;5032684;28;20528;-70
2023/06/09 09:16:37;;;;;;;1.70;1.60;;;27.90;99.90;;;;;;5031981;28;20532;-71
2023/06/09 09:19:06;;;;;;;1.50;1.40;;;27.90;99.90;;;;;;5064489;28;20460;-72
2023/06/09 09:21:37;;;;;;;1.33;1.27;;;27.80;99.90;;;;;;5034953;28;20519;-71
2023/06/09 09:24:06;;;;;;;1.30;1.20;;;27.70;99.90;;;;;;5031522;28;20504;-71
2023/06/09 09:26:33;;;;;;;1.10;1.10;;;27.70;99.90;;;;;;5033174;28;20437;-72
2023/06/09 09:29:09;;;;;;;1.35;1.35;;;28.00;99.90;;;;;;5034092;28;20429;-71
2023/06/09 09:31:39;;;;;;;1.37;1.30;;;27.90;99.90;;;;;;5034570;28;20447;-71
2023/06/09 09:34:11;;;;;;;1.40;1.30;;;27.00;99.90;;;;;;5033909;28;20437;-71
2023/06/09 09:36:42;;;;;;;1.10;1.00;;;27.30;99.90;;;;;;5033495;28;20441;-72
2023/06/09 09:39:09;;;;;;;1.40;1.40;;;27.40;99.90;;;;;;5034740;28;20495;-71
2023/06/09 09:41:37;;;;;;;1.13;1.13;;;27.00;99.90;;;;;;5033225;28;20516;-71
2023/06/09 09:44:04;;;;;;;1.92;0.95;;;27.00;99.90;;;;;;5032477;28;20582;-72
2023/06/09 09:46:39;;;;;;;1.80;1.63;;;27.30;99.90;;;;;;5033654;28;20519;-72
2023/06/09 09:49:20;;;;;;;1.80;1.38;;;27.20;99.90;;;;;;5030107;28;20433;-71
2023/06/09 09:51:47;;;;;;;1.42;1.10;;;27.60;99.90;;;;;;5030314;28;20999;-71
2023/06/09 09:54:13;;;;;;;1.52;1.42;;;27.20;99.90;;;;;;5031838;28;20437;-71
2023/06/09 09:56:41;;;;;;;1.15;1.15;;;27.80;99.90;;;;;;5031811;28;20429;-72
2023/06/09 09:59:07;;;;;;;1.20;1.20;;;28.00;99.90;;;;;;5033699;28;20545;-71
2023/06/09 10:01:35;;;;;;;2.03;1.27;;;28.00;99.90;;;;;;5034025;28;20552;-72
2023/06/09 10:04:03;;;;;;;3.85;1.40;;;28.20;99.90;;;;;;5031724;28;20578;-71
2023/06/09 10:06:32;;;;;;;1.90;1.33;;;28.60;99.90;;;;;;5031974;28;20429;-71
2023/06/09 10:09:00;;;;;;;1.27;1.17;;;28.00;99.90;;;;;;5032377;28;20475;-72
2023/06/09 10:11:31;;;;;;;1.35;1.35;;;27.80;99.90;;;;;;5037622;28;20494;-71
2023/06/09 10:14:00;;;;;;;1.63;1.52;;;27.70;99.90;;;;;;5045834;28;20436;-71
2023/06/09 10:16:28;;;;;;;1.20;1.20;;;28.10;99.90;;;;;;5038801;28;20642;-71
2023/06/09 10:18:56;;;;;;;1.10;1.10;;;28.40;99.90;;;;;;5038942;28;20443;-72
2023/06/09 10:21:25;;;;;;;1.60;1.50;;;28.10;99.90;;;;;;5040713;28;20433;-72
2023/06/09 10:23:52;;;;;;;1.15;1.15;;;28.20;99.90;;;;;;5039600;28;20728;-72
2023/06/09 10:26:21;;;;;;;1.20;1.13;;;28.60;99.90;;;;;;5039230;28;20803;-72
2023/06/09 10:28:48;;;;;;;1.20;1.20;;;28.20;99.90;;;;;;5040329;28;20920;-72
2023/06/09 10:31:17;;;;;;;1.15;1.15;;;28.10;99.90;;;;;;5039181;28;20876;-72
2023/06/09 10:33:45;;;;;;;1.33;1.33;;;28.30;99.90;;;;;;5037537;28;20425;-72
2023/06/09 10:36:14;;;;;;;3.17;1.30;;;28.70;99.90;;;;;;5041072;28;20437;-74
2023/06/09 10:38:44;;;;;;;1.77;1.67;;;28.80;99.90;;;;;;5040339;28;20879;-71
2023/06/09 10:41:34;;;;;;;1.52;1.42;;;29.00;99.90;;;;;;5039980;28;20441;-72
2023/06/09 10:44:17;;;;;;;2.45;1.15;;;29.50;99.90;;;;;;5034668;28;20437;-72
2023/06/09 10:46:50;;;;;;;1.25;1.10;;;28.70;99.90;;;;;;5039430;28;20461;-72
2023/06/09 10:49:24;;;;;;;1.20;1.20;;;28.80;99.90;;;;;;5039030;28;20943;-71
2023/06/09 10:51:52;;;;;;;1.20;1.10;;;29.10;99.90;;;;;;5035016;28;21087;-71
2023/06/09 10:54:24;;;;;;;1.30;1.30;;;29.60;99.90;;;;;;5039560;28;20425;-71
2023/06/09 10:57:00;;;;;;;1.20;1.20;;;29.80;99.90;;;;;;5037503;28;20436;-72
2023/06/09 10:59:26;;;;;;;3.80;1.30;;;29.70;99.90;;;;;;5037548;28;20517;-71
2023/06/09 11:02:02;;;;;;;1.57;1.33;;;29.70;99.90;;;;;;5030853;28;20441;-71
2023/06/09 11:04:41;;;;;;;0.95;0.95;;;29.10;99.90;;;;;;5034714;28;21011;-72
2023/06/09 11:07:22;;;;;;;1.40;1.30;;;29.60;99.90;;;;;;5039302;28;20476;-70
2023/06/09 11:09:49;;;;;;;1.17;1.13;;;29.70;99.90;;;;;;5066649;28;20436;-71
2023/06/09 11:12:25;;;;;;;1.20;1.20;;;29.70;99.90;;;;;;5043143;28;20449;-71
2023/06/09 11:14:56;;;;;;;1.20;1.10;;;30.00;99.90;;;;;;5038981;28;20429;-71
2023/06/09 11:17:29;;;;;;;1.17;1.17;;;29.40;99.90;;;;;;5040439;28;20942;-72
2023/06/09 11:20:08;;;;;;;1.20;1.10;;;29.10;99.90;;;;;;5040073;28;20440;-72
2023/06/09 11:22:41;;;;;;;1.08;1.08;;;29.10;99.90;;;;;;5035822;28;20441;-72
2023/06/09 11:25:30;;;;;;;1.27;1.25;;;29.30;99.90;;;;;;5037122;28;20436;-73
2023/06/09 11:27:56;;;;;;;0.90;0.90;;;29.00;99.90;;;;;;5038004;28;20484;-72
2023/06/09 11:30:26;;;;;;;0.80;0.80;;;28.80;99.90;;;;;;5034147;28;20425;-71
2023/06/09 11:32:54;;;;;;;1.53;0.80;;;28.80;99.90;;;;;;5038420;28;21437;-72
2023/06/09 11:35:29;;;;;;;4.80;1.13;;;28.60;99.90;;;;;;5038927;28;20457;-72
2023/06/09 11:38:07;;;;;;;1.00;1.00;;;29.20;99.90;;;;;;5041175;28;20424;-72
2023/06/09 11:40:37;;;;;;;1.38;1.30;;;29.50;99.90;;;;;;5037747;28;22303;-72
2023/06/09 11:43:08;;;;;;;1.00;1.00;;;29.50;99.90;;;;;;5043313;28;21153;-72
2023/06/09 11:45:37;;;;;;;1.15;1.05;;;29.30;99.90;;;;;;5041766;28;20475;-71
2023/06/09 11:48:06;;;;;;;1.35;1.35;;;29.80;99.90;;;;;;5039580;28;20454;-72
2023/06/09 11:50:39;;;;;;;1.35;1.25;;;30.00;99.90;;;;;;5043464;28;20429;-71
2023/06/09 11:53:16;;;;;;;1.38;1.30;;;30.30;99.90;;;;;;5038778;28;20438;-70
2023/06/09 11:55:45;;;;;;;2.65;1.30;;;30.80;99.90;;;;;;5074413;28;20508;-72
2023/06/09 11:58:15;;;;;;;1.25;1.15;;;30.60;99.90;;;;;;5041599;28;20429;-71
2023/06/09 12:00:43;;;;;;;1.08;1.08;;;30.10;99.90;;;;;;5035870;28;20529;-72
2023/06/09 12:03:12;;;;;;;3.30;1.50;;;29.70;99.90;;;;;;5037209;28;20550;-71
2023/06/09 12:05:47;;;;;;;0.95;0.95;;;29.60;99.90;;;;;;5040863;28;20441;-71
2023/06/09 12:08:14;;;;;;;1.17;1.17;;;29.20;99.90;;;;;;5038313;28;20748;-71
2023/06/09 12:10:47;;;;;;;0.90;0.90;;;29.40;99.90;;;;;;5040763;28;20425;-71
2023/06/09 12:13:14;;;;;;;1.27;1.27;;;29.40;99.90;;;;;;5042961;28;20742;-71
2023/06/09 12:15:45;;;;;;;1.00;1.00;;;29.40;99.90;;;;;;5039919;28;20432;-71
2023/06/09 12:18:12;;;;;;;1.25;1.25;;;29.40;99.90;;;;;;5069382;28;20425;-73
2023/06/09 12:20:41;;;;;;;2.20;1.27;;;29.50;99.90;;;;;;5041986;28;20468;-71
2023/06/09 12:23:13;;;;;;;0.98;0.98;;;29.40;99.90;;;;;;5041577;28;20472;-72
2023/06/09 12:25:45;;;;;;;1.63;1.60;;;29.60;99.90;;;;;;5040633;28;20433;-71
2023/06/09 12:28:23;;;;;;;1.35;1.30;;;29.30;99.90;;;;;;5037859;28;20462;-72
2023/06/09 12:30:53;;;;;;;1.30;1.20;;;29.20;99.90;;;;;;5040191;28;20465;-72
2023/06/09 12:33:29;;;;;;;1.30;1.30;;;29.50;99.90;;;;;;5042308;28;20421;-72
2023/06/09 12:36:10;;;;;;;1.25;1.25;;;29.40;99.90;;;;;;5041415;28;20433;-71
2023/06/09 12:38:40;;;;;;;1.27;1.17;;;29.20;99.90;;;;;;5043159;28;20435;-73
2023/06/09 12:41:09;;;;;;;1.20;1.20;;;29.00;99.90;;;;;;5040707;28;20429;-71
2023/06/09 12:43:48;;;;;;;1.37;1.37;;;29.20;99.90;;;;;;5037523;28;20429;-72
2023/06/09 12:46:35;;;;;;;1.30;1.20;;;29.10;99.90;;;;;;5037845;28;20829;-72
2023/06/09 12:49:05;;;;;;;1.20;1.20;;;28.80;99.90;;;;;;5037334;28;20427;-72
2023/06/09 12:51:43;;;;;;;1.10;1.10;;;29.00;99.90;;;;;;5039823;28;21128;-72
2023/06/09 12:54:13;;;;;;;1.42;1.33;;;29.60;99.90;;;;;;5037167;28;20464;-72
2023/06/09 12:56:40;;;;;;;1.10;1.10;;;29.60;99.90;;;;;;5042587;28;20429;-72
2023/06/09 12:59:08;;;;;;;1.45;1.35;;;29.90;99.90;;;;;;5070929;28;20437;-71
2023/06/09 13:01:39;;;;;;;1.35;1.30;;;29.90;99.90;;;;;;5031723;28;20882;-71